createdAt,value
2017-09-07T00:01:09.070Z,68.04
2017-09-07T00:02:19.151Z,67.94
2017-09-07T00:03:29.487Z,67.94
2017-09-07T00:04:39.516Z,67.84
2017-09-07T00:05:49.860Z,68.23
2017-09-07T00:07:00.236Z,67.94
2017-09-07T00:08:10.580Z,68.52
2017-09-07T00:09:20.286Z,68.04
2017-09-07T00:10:30.627Z,68.04
2017-09-07T00:11:40.341Z,68.61
2017-09-07T00:12:50.682Z,68.32
2017-09-07T00:14:01.018Z,68.42
2017-09-07T00:15:11.357Z,68.38
2017-09-07T00:16:21.704Z,68.32
2017-09-07T00:17:32.061Z,68.32
2017-09-07T00:18:42.391Z,68.23
2017-09-07T00:19:52.777Z,68.32
2017-09-07T00:21:04.228Z,68.38
2017-09-07T00:22:14.570Z,68.19
2017-09-07T00:23:24.922Z,68.29
2017-09-07T00:24:35.269Z,68.87
2017-09-07T00:25:45.330Z,68.68
2017-09-07T00:26:55.669Z,68.58
2017-09-07T00:28:06.015Z,68.68
2017-09-07T00:29:16.361Z,68.68
2017-09-07T00:30:26.394Z,68.77
2017-09-07T00:31:36.775Z,68.87
2017-09-07T00:32:47.111Z,68.64
2017-09-07T00:33:56.819Z,68.16
2017-09-07T00:35:07.171Z,68.26
2017-09-07T00:36:17.533Z,68.35
2017-09-07T00:37:27.618Z,68.26
2017-09-07T00:38:37.643Z,68.26
2017-09-07T00:39:47.996Z,67.87
2017-09-07T00:40:58.022Z,67.77
2017-09-07T00:42:08.361Z,68.06
2017-09-07T00:43:18.433Z,68.16
2017-09-07T00:44:28.460Z,68.35
2017-09-07T00:45:38.802Z,67.97
2017-09-07T00:46:48.822Z,67.87
2017-09-07T00:47:59.164Z,68.26
2017-09-07T00:49:09.243Z,67.87
2017-09-07T00:50:19.583Z,68.35
2017-09-07T00:51:29.946Z,68.35
2017-09-07T00:52:39.965Z,68.16
2017-09-07T00:53:50.303Z,68.35
2017-09-07T00:55:00.791Z,68.26
2017-09-07T00:56:11.183Z,68.26
2017-09-07T00:57:21.538Z,68.26
2017-09-07T00:58:31.893Z,68.26
2017-09-07T00:59:42.225Z,68.35
2017-09-07T01:00:52.554Z,68.35
2017-09-07T01:02:02.889Z,68.26
2017-09-07T01:03:13.272Z,68.6
2017-09-07T01:04:23.598Z,68.84
2017-09-07T01:05:33.957Z,68.6
2017-09-07T01:06:43.988Z,68.8
2017-09-07T01:07:54.349Z,68.9
2017-09-07T01:09:04.684Z,68.6
2017-09-07T01:10:15.597Z,68.6
2017-09-07T01:11:25.950Z,68.51
2017-09-07T01:12:36.353Z,68.6
2017-09-07T01:13:46.715Z,68.41
2017-09-07T01:14:57.064Z,68.32
2017-09-07T01:16:07.098Z,68.51
2017-09-07T01:17:17.447Z,68.48
2017-09-07T01:18:27.516Z,68.57
2017-09-07T01:19:37.543Z,68.57
2017-09-07T01:20:47.888Z,68.48
2017-09-07T01:21:57.921Z,68.86
2017-09-07T01:23:08.254Z,68.38
2017-09-07T01:24:18.645Z,68.96
2017-09-07T01:25:29.193Z,68.76
2017-09-07T01:26:38.912Z,68.86
2017-09-07T01:27:49.254Z,68.86
2017-09-07T01:28:59.602Z,68.48
2017-09-07T01:30:10.008Z,68.67
2017-09-07T01:31:20.346Z,68.57
2017-09-07T01:32:30.682Z,68.57
2017-09-07T01:33:41.575Z,68.76
2017-09-07T01:34:51.926Z,68.96
2017-09-07T01:36:02.268Z,68.76
2017-09-07T01:37:12.950Z,68.86
2017-09-07T01:38:24.400Z,68.57
2017-09-07T01:39:34.736Z,68.38
2017-09-07T01:40:44.773Z,68.57
2017-09-07T01:41:54.475Z,68.86
2017-09-07T01:43:04.524Z,68.57
2017-09-07T01:44:14.552Z,68.57
2017-09-07T01:45:24.571Z,68.57
2017-09-07T01:46:34.899Z,68.76
2017-09-07T01:47:45.231Z,68.29
2017-09-07T01:48:55.274Z,68.29
2017-09-07T01:50:05.663Z,67.99
2017-09-07T01:51:16.019Z,67.99
2017-09-07T01:52:26.400Z,67.99
2017-09-07T01:53:36.798Z,68.19
2017-09-07T01:54:46.835Z,68.19
2017-09-07T01:55:57.327Z,68.19
2017-09-07T01:57:07.679Z,68.29
2017-09-07T01:58:17.709Z,67.99
2017-09-07T01:59:28.097Z,68.38
2017-09-07T02:00:37.807Z,68.25
2017-09-07T02:01:47.835Z,68.15
2017-09-07T02:02:58.196Z,68.63
2017-09-07T02:04:08.229Z,68.54
2017-09-07T02:05:18.591Z,68.54
2017-09-07T02:06:28.927Z,68.63
2017-09-07T02:07:39.273Z,68.54
2017-09-07T02:08:49.615Z,68.35
2017-09-07T02:09:59.646Z,68.54
2017-09-07T02:11:09.993Z,68.54
2017-09-07T02:12:19.711Z,68.54
2017-09-07T02:13:30.057Z,68.54
2017-09-07T02:14:40.405Z,68.63
2017-09-07T02:15:50.741Z,68.63
2017-09-07T02:17:00.848Z,68.06
2017-09-07T02:18:11.199Z,67.93
2017-09-07T02:19:21.596Z,68.6
2017-09-07T02:20:31.950Z,68.51
2017-09-07T02:21:41.972Z,68.12
2017-09-07T02:22:52.372Z,67.74
2017-09-07T02:24:02.700Z,68.6
2017-09-07T02:25:12.735Z,67.83
2017-09-07T02:26:22.772Z,68.51
2017-09-07T02:27:32.814Z,68.7
2017-09-07T02:28:44.040Z,68.7
2017-09-07T02:29:54.397Z,68.6
2017-09-07T02:31:04.740Z,68.7
2017-09-07T02:32:14.862Z,68.02
2017-09-07T02:33:25.199Z,68.51
2017-09-07T02:34:35.839Z,68.6
2017-09-07T02:35:46.186Z,68.21
2017-09-07T02:36:56.213Z,68.21
2017-09-07T02:38:06.569Z,68.21
2017-09-07T02:39:16.277Z,68.21
2017-09-07T02:40:26.670Z,68.12
2017-09-07T02:41:37.016Z,68.12
2017-09-07T02:42:47.038Z,68.12
2017-09-07T02:43:57.059Z,68.02
2017-09-07T02:45:07.442Z,68.21
2017-09-07T02:46:17.786Z,68.02
2017-09-07T02:47:27.495Z,68.7
2017-09-07T02:48:37.840Z,68.12
2017-09-07T02:49:48.199Z,68.02
2017-09-07T02:50:58.687Z,68.12
2017-09-07T02:52:09.097Z,68.21
2017-09-07T02:53:19.434Z,68.08
2017-09-07T02:54:29.471Z,68.21
2017-09-07T02:55:39.810Z,68.12
2017-09-07T02:56:50.141Z,68.31
2017-09-07T02:58:00.165Z,68.18
2017-09-07T02:59:09.891Z,68.08
2017-09-07T03:00:19.923Z,67.8
2017-09-07T03:01:30.261Z,68.18
2017-09-07T03:33:29.839Z,65.42
2017-09-07T03:34:40.173Z,66.48
2017-09-07T03:35:50.498Z,66.48
2017-09-07T03:37:00.819Z,67.44
2017-09-07T03:38:10.834Z,67.25
2017-09-07T03:39:20.902Z,67.82
2017-09-07T03:40:30.917Z,67.72
2017-09-07T03:41:40.936Z,68.3
2017-09-07T03:42:51.292Z,68.4
2017-09-07T03:44:01.630Z,68.21
2017-09-07T03:45:11.701Z,68.43
2017-09-07T03:46:21.733Z,68.72
2017-09-07T03:47:32.075Z,68.72
2017-09-07T03:48:42.411Z,68.66
2017-09-07T03:49:52.422Z,68.75
2017-09-07T03:51:04.596Z,68.46
2017-09-07T03:52:14.937Z,68.4
2017-09-07T03:53:25.278Z,68.21
2017-09-07T03:54:35.606Z,68.21
2017-09-07T03:55:47.907Z,68.12
2017-09-07T03:56:58.328Z,68.21
2017-09-07T03:58:08.373Z,68.34
2017-09-07T03:59:18.741Z,68.4
2017-09-07T04:00:29.089Z,68.34
2017-09-07T04:01:39.432Z,68.34
2017-09-07T04:02:49.837Z,68.53
2017-09-07T04:04:00.187Z,68.53
2017-09-07T04:05:10.205Z,68.53
2017-09-07T04:06:20.548Z,68.05
2017-09-07T04:07:30.896Z,68.05
2017-09-07T04:08:40.976Z,68.15
2017-09-07T04:09:51.016Z,68.15
2017-09-07T04:11:01.077Z,68.18
2017-09-07T04:12:11.406Z,68.08
2017-09-07T04:13:21.127Z,68.28
2017-09-07T04:14:31.535Z,68.18
2017-09-07T04:15:41.892Z,68.08
2017-09-07T04:16:52.268Z,68.28
2017-09-07T04:18:02.605Z,68.28
2017-09-07T04:19:12.945Z,68.18
2017-09-07T04:20:22.967Z,68.18
2017-09-07T04:21:34.771Z,68.08
2017-09-07T04:22:45.158Z,68.08
2017-09-07T04:23:55.493Z,68.28
2017-09-07T04:25:05.831Z,68.18
2017-09-07T04:26:15.867Z,67.7
2017-09-07T04:27:26.211Z,67.8
2017-09-07T04:28:36.232Z,67.9
2017-09-07T04:29:46.570Z,67.8
2017-09-07T04:30:56.914Z,67.7
2017-09-07T04:32:06.978Z,67.9
2017-09-07T04:33:17.358Z,67.99
2017-09-07T04:34:27.371Z,68.02
2017-09-07T04:35:37.402Z,68.41
2017-09-07T04:36:47.779Z,67.83
2017-09-07T04:37:57.531Z,68.02
2017-09-07T04:39:07.876Z,68.02
2017-09-07T04:40:17.900Z,67.64
2017-09-07T04:41:27.951Z,67.35
2017-09-07T04:42:37.997Z,67.77
2017-09-07T04:43:48.030Z,67.48
2017-09-07T04:44:57.739Z,67.68
2017-09-07T04:46:08.089Z,67.77
2017-09-07T04:47:18.428Z,67.29
2017-09-07T04:48:28.760Z,67.99
2017-09-07T04:49:39.158Z,67.71
2017-09-07T04:50:49.189Z,67.71
2017-09-07T04:51:59.538Z,67.51
2017-09-07T04:53:09.552Z,66.84
2017-09-07T04:54:19.264Z,66.78
2017-09-07T04:55:29.657Z,66.68
2017-09-07T04:56:39.988Z,66.14
2017-09-07T04:57:50.020Z,66.65
2017-09-07T04:59:00.382Z,66.07
2017-09-07T05:00:10.705Z,65.88
2017-09-07T05:01:20.418Z,65.98
2017-09-07T05:02:30.758Z,66.88
2017-09-07T05:03:40.778Z,66.59
2017-09-07T05:04:51.125Z,66.59
2017-09-07T05:06:01.473Z,66.69
2017-09-07T05:07:11.864Z,66.14
2017-09-07T05:08:21.907Z,65.95
2017-09-07T05:09:32.270Z,66.17
2017-09-07T05:10:42.624Z,66.36
2017-09-07T05:11:52.327Z,66.17
2017-09-07T05:13:02.028Z,65.69
2017-09-07T05:14:12.599Z,66.3
2017-09-07T05:15:22.938Z,66.88
2017-09-07T05:16:32.958Z,66.85
2017-09-07T05:17:43.308Z,67.52
2017-09-07T05:18:53.645Z,67.78
2017-09-07T05:20:03.980Z,67.88
2017-09-07T05:21:14.001Z,67.68
2017-09-07T05:22:24.018Z,67.68
2017-09-07T05:23:33.733Z,67.49
2017-09-07T05:24:43.836Z,67.58
2017-09-07T05:25:54.208Z,67.49
2017-09-07T05:27:04.234Z,68.07
2017-09-07T05:28:14.572Z,67.58
2017-09-07T05:29:24.602Z,67.49
2017-09-07T05:30:34.953Z,67.1
2017-09-07T05:31:45.297Z,67.04
2017-09-07T05:32:55.639Z,66.94
2017-09-07T05:34:05.995Z,67.43
2017-09-07T05:35:17.233Z,67.52
2017-09-07T05:36:27.590Z,67.81
2017-09-07T05:37:37.920Z,67.88
2017-09-07T05:38:47.942Z,67.4
2017-09-07T05:39:57.991Z,67.78
2017-09-07T05:41:08.565Z,67.3
2017-09-07T05:42:19.311Z,67.68
2017-09-07T05:43:29.648Z,67.49
2017-09-07T05:44:39.594Z,67.2
2017-09-07T05:45:49.954Z,67.1
2017-09-07T05:47:00.303Z,67.33
2017-09-07T05:49:50.167Z,66.78
2017-09-07T05:51:00.506Z,66.66
2017-09-07T05:52:11.372Z,67.07
2017-09-07T05:53:21.749Z,67.43
2017-09-07T05:54:31.456Z,67.04
2017-09-07T05:55:41.808Z,67.23
2017-09-07T06:00:07.171Z,67.04
2017-09-07T06:01:17.527Z,67.04
2017-09-07T06:02:27.551Z,67
2017-09-07T06:03:37.918Z,66.91
2017-09-07T06:04:48.277Z,67.46
2017-09-07T06:05:58.628Z,67.84
2017-09-07T06:07:08.959Z,67.07
2017-09-07T06:08:18.356Z,67.07
2017-09-07T06:09:28.698Z,67.55
2017-09-07T06:10:39.041Z,67.74
2017-09-07T06:11:49.391Z,67.74
2017-09-07T06:12:59.728Z,67.65
2017-09-07T06:14:10.071Z,67.46
2017-09-07T06:15:20.403Z,67.16
2017-09-07T06:16:30.729Z,67.65
2017-09-07T06:17:40.810Z,66.97
2017-09-07T06:18:51.152Z,66.69
2017-09-07T06:20:00.864Z,67.1
2017-09-07T06:21:11.209Z,66.72
2017-09-07T06:29:55.439Z,66.94
2017-09-07T06:31:18.713Z,66.36
2017-09-07T06:32:30.574Z,66.27
2017-09-07T06:33:40.962Z,66.36
2017-09-07T06:34:50.730Z,66.17
2017-09-07T06:36:01.630Z,66.17
2017-09-07T06:37:11.375Z,66.27
2017-09-07T06:38:21.394Z,66.94
2017-09-07T06:39:31.726Z,66.66
2017-09-07T06:40:42.068Z,66.97
2017-09-07T06:41:52.403Z,66.2
2017-09-07T06:43:02.756Z,66.3
2017-09-07T06:44:13.106Z,66.49
2017-09-07T06:45:23.494Z,66.78
2017-09-07T06:46:35.841Z,66.69
2017-09-07T06:47:45.896Z,66.49
2017-09-07T06:48:56.248Z,66.49
2017-09-07T06:50:06.626Z,66.4
2017-09-07T06:51:16.693Z,66.78
2017-09-07T06:52:26.737Z,66.3
2017-09-07T06:53:37.086Z,66.3
2017-09-07T06:54:47.104Z,67.01
2017-09-07T06:55:57.129Z,66.24
2017-09-07T06:57:07.522Z,66.14
2017-09-07T06:58:17.542Z,65.85
2017-09-07T06:59:27.255Z,66.33
2017-09-07T07:00:37.586Z,67.01
2017-09-07T07:01:48.845Z,67.27
2017-09-07T07:02:59.250Z,67.07
2017-09-07T07:04:09.268Z,67.36
2017-09-07T07:05:19.613Z,66.88
2017-09-07T07:06:29.656Z,67.27
2017-09-07T07:07:40.006Z,66.3
2017-09-07T07:08:50.438Z,66.78
2017-09-07T07:10:00.475Z,66.49
2017-09-07T07:11:10.813Z,66.3
2017-09-07T07:12:20.839Z,66.59
2017-09-07T07:13:31.199Z,66.59
2017-09-07T07:14:41.597Z,66.69
2017-09-07T07:15:51.623Z,67.27
2017-09-07T07:17:01.971Z,66.78
2017-09-07T07:18:12.320Z,67.36
2017-09-07T07:19:24.047Z,67.65
2017-09-07T07:20:34.423Z,67.14
2017-09-07T07:21:44.780Z,66.94
2017-09-07T07:22:55.135Z,67.14
2017-09-07T07:24:05.183Z,66.75
2017-09-07T07:25:15.205Z,67.04
2017-09-07T07:26:25.615Z,67.14
2017-09-07T07:27:35.970Z,67.52
2017-09-07T07:28:46.323Z,67.1
2017-09-07T07:29:56.657Z,67.04
2017-09-07T07:31:06.694Z,66.94
2017-09-07T07:32:17.031Z,66.59
2017-09-07T07:33:27.371Z,66.4
2017-09-07T07:34:37.727Z,66.01
2017-09-07T07:35:47.431Z,66.11
2017-09-07T07:36:57.774Z,65.91
2017-09-07T07:38:08.165Z,65.85
2017-09-07T07:39:18.497Z,65.75
2017-09-07T07:40:28.537Z,66.14
2017-09-07T07:41:40.229Z,66.14
2017-09-07T07:42:50.581Z,66.33
2017-09-07T07:44:00.934Z,66.08
2017-09-07T07:45:10.972Z,65.98
2017-09-07T07:46:21.326Z,66.05
2017-09-07T07:47:31.354Z,65.88
2017-09-07T07:48:42.038Z,65.5
2017-09-07T07:49:52.801Z,66.08
2017-09-07T07:51:03.157Z,65.98
2017-09-07T07:52:13.195Z,65.72
2017-09-07T07:53:23.805Z,65.43
2017-09-07T07:54:34.202Z,65.82
2017-09-07T07:55:44.637Z,66.01
2017-09-07T07:56:55.018Z,66.3
2017-09-07T07:58:05.454Z,66.01
2017-09-07T07:59:15.897Z,65.53
2017-09-07T08:00:26.321Z,65.75
2017-09-07T08:01:36.447Z,64.98
2017-09-07T08:02:46.521Z,64.82
2017-09-07T08:03:56.944Z,65.3
2017-09-07T08:05:07.338Z,64.75
2017-09-07T08:06:17.719Z,64.75
2017-09-07T08:07:28.186Z,64.75
2017-09-07T08:08:38.588Z,65.05
2017-09-07T08:09:48.973Z,65.34
2017-09-07T08:10:59.028Z,65.63
2017-09-07T08:12:09.112Z,65.82
2017-09-07T08:13:19.460Z,65.59
2017-09-07T08:14:29.826Z,65.24
2017-09-07T08:15:40.185Z,65.24
2017-09-07T08:16:50.229Z,64.98
2017-09-07T08:18:00.559Z,65.27
2017-09-07T08:19:10.915Z,65.27
2017-09-07T08:20:20.941Z,64.79
2017-09-07T08:21:31.302Z,65.85
2017-09-07T08:22:41.731Z,65.63
2017-09-07T08:23:52.073Z,65.43
2017-09-07T08:25:02.151Z,65.63
2017-09-07T08:26:12.478Z,66.2
2017-09-07T08:27:22.827Z,65.92
2017-09-07T08:28:33.170Z,65.27
2017-09-07T08:29:43.560Z,64.79
2017-09-07T08:30:53.921Z,65.3
2017-09-07T08:32:03.945Z,65.08
2017-09-07T08:33:14.319Z,66.05
2017-09-07T08:34:24.405Z,65.63
2017-09-07T08:35:34.437Z,64.85
2017-09-07T08:36:44.796Z,65.08
2017-09-07T08:37:55.145Z,65.27
2017-09-07T08:39:05.483Z,64.69
2017-09-07T08:40:15.563Z,64.92
2017-09-07T08:41:25.934Z,64.82
2017-09-07T08:42:36.299Z,64.92
2017-09-07T08:43:46.656Z,64.17
2017-09-07T08:44:56.697Z,64.37
2017-09-07T08:46:07.091Z,64.65
2017-09-07T08:47:17.114Z,65.24
2017-09-07T08:48:27.478Z,65.14
2017-09-07T08:49:37.850Z,65.3
2017-09-07T08:50:47.915Z,65.11
2017-09-07T08:51:58.011Z,64.62
2017-09-07T08:53:08.033Z,64.95
2017-09-07T08:54:18.418Z,64.65
2017-09-07T08:55:28.767Z,64.07
2017-09-07T08:56:38.804Z,64.11
2017-09-07T08:57:49.195Z,64.69
2017-09-07T08:58:59.563Z,65.05
2017-09-07T09:00:09.607Z,64.85
2017-09-07T09:01:20.183Z,65.05
2017-09-07T09:02:30.750Z,65.34
2017-09-07T09:03:41.168Z,65.34
2017-09-07T09:04:51.514Z,64.85
2017-09-07T09:06:03.534Z,64.85
2017-09-07T09:07:13.903Z,64.95
2017-09-07T09:08:24.282Z,64.85
2017-09-07T09:09:34.414Z,63.53
2017-09-07T09:10:44.770Z,64.01
2017-09-07T09:11:54.811Z,64.5
2017-09-07T09:13:04.855Z,65.05
2017-09-07T09:14:15.224Z,64.95
2017-09-07T09:15:25.823Z,64.75
2017-09-07T09:16:35.874Z,64.85
2017-09-07T09:17:45.900Z,64.17
2017-09-07T09:18:55.946Z,63.91
2017-09-07T09:20:05.972Z,63.82
2017-09-07T09:21:16.379Z,63.85
2017-09-07T09:22:26.721Z,64.23
2017-09-07T09:23:37.088Z,64.23
2017-09-07T09:24:47.429Z,64.72
2017-09-07T09:25:57.782Z,65.08
2017-09-07T09:27:08.221Z,64.95
2017-09-07T09:28:20.520Z,65.24
2017-09-07T09:29:30.867Z,65.53
2017-09-07T09:30:40.931Z,65.11
2017-09-07T09:31:50.967Z,65.14
2017-09-07T09:33:01.213Z,65.05
2017-09-07T09:34:11.240Z,65.4
2017-09-07T09:35:21.576Z,65.98
2017-09-07T09:36:31.937Z,65.98
2017-09-07T09:37:44.327Z,64.82
2017-09-07T09:38:54.707Z,64.47
2017-09-07T09:40:04.743Z,64.56
2017-09-07T09:41:14.784Z,63.91
2017-09-07T09:42:24.828Z,64.04
2017-09-07T09:43:34.884Z,63.95
2017-09-07T09:44:46.158Z,63.26
2017-09-07T09:45:58.456Z,63.01
2017-09-07T09:47:08.513Z,62.94
2017-09-07T09:48:18.860Z,62.03
2017-09-07T09:49:32.982Z,61.47
2017-09-07T09:50:43.345Z,61.21
2017-09-07T09:51:53.392Z,61.7
2017-09-07T09:53:03.428Z,61.73
2017-09-07T09:54:13.791Z,61.54
2017-09-07T09:55:27.202Z,62.9
2017-09-07T09:56:37.553Z,63.52
2017-09-07T09:57:47.892Z,64.1
2017-09-07T09:58:58.226Z,64.17
2017-09-07T10:00:08.004Z,64.85
2017-09-07T10:01:18.043Z,65.11
2017-09-07T10:02:28.457Z,65.01
2017-09-07T10:03:38.815Z,65.08
2017-09-07T10:04:48.826Z,65.47
2017-09-07T10:05:58.876Z,65.33
2017-09-07T10:07:08.919Z,65.33
2017-09-07T10:08:19.275Z,65.53
2017-09-07T10:09:29.628Z,65.24
2017-09-07T10:10:40.037Z,65.59
2017-09-07T10:11:50.397Z,65.4
2017-09-07T10:13:00.778Z,65.5
2017-09-07T10:14:10.244Z,65.4
2017-09-07T10:15:20.650Z,65.01
2017-09-07T10:16:31.008Z,65.37
2017-09-07T10:17:41.383Z,65.08
2017-09-07T10:18:51.418Z,65.08
2017-09-07T10:20:01.848Z,65.08
2017-09-07T10:21:11.893Z,65.34
2017-09-07T10:22:22.270Z,65.63
2017-09-07T10:23:32.661Z,65.63
2017-09-07T10:24:43.004Z,65.92
2017-09-07T10:25:52.773Z,65.69
2017-09-07T10:27:03.169Z,65.69
2017-09-07T10:28:13.204Z,65.89
2017-09-07T10:29:23.245Z,65.5
2017-09-07T10:30:33.290Z,65.4
2017-09-07T10:31:43.362Z,65.2
2017-09-07T10:32:53.715Z,65.2
2017-09-07T10:34:04.055Z,65.4
2017-09-07T10:35:14.388Z,65.3
2017-09-07T10:36:24.750Z,65.69
2017-09-07T10:37:35.322Z,65.85
2017-09-07T10:38:45.046Z,66.24
2017-09-07T10:39:55.406Z,66.43
2017-09-07T10:41:05.799Z,66.2
2017-09-07T10:42:16.153Z,66.6
2017-09-07T10:43:26.494Z,67.05
2017-09-07T10:44:36.866Z,66.56
2017-09-07T10:45:47.214Z,66.85
2017-09-07T10:46:57.251Z,66.27
2017-09-07T10:48:07.622Z,66.75
2017-09-07T10:49:17.975Z,66.63
2017-09-07T10:50:28.347Z,66.33
2017-09-07T10:51:38.718Z,66.63
2017-09-07T10:52:48.760Z,66.72
2017-09-07T10:54:00.935Z,66.53
2017-09-07T10:55:11.303Z,67.11
2017-09-07T10:56:21.656Z,66.43
2017-09-07T10:57:31.682Z,66.24
2017-09-07T10:58:41.709Z,66.24
2017-09-07T10:59:52.083Z,65.4
2017-09-07T11:01:02.168Z,65.2
2017-09-07T11:02:12.529Z,65.24
2017-09-07T11:03:22.914Z,64.75
2017-09-07T11:04:33.276Z,64.3
2017-09-07T11:05:43.668Z,63.85
2017-09-07T11:06:53.854Z,63.49
2017-09-07T11:08:03.890Z,62.95
2017-09-07T11:09:13.973Z,63.26
2017-09-07T11:10:24.322Z,63.01
2017-09-07T11:11:34.678Z,62.45
2017-09-07T11:12:45.089Z,61.9
2017-09-07T11:13:55.435Z,62.13
2017-09-07T11:15:05.463Z,61.74
2017-09-07T11:16:15.851Z,61.96
2017-09-07T11:17:25.911Z,63.13
2017-09-07T11:18:36.256Z,63.39
2017-09-07T11:19:46.296Z,62.9
2017-09-07T11:20:56.353Z,62.9
2017-09-07T11:22:06.390Z,63.29
2017-09-07T11:23:17.036Z,63.23
2017-09-07T11:24:27.437Z,63.68
2017-09-07T11:25:37.476Z,63
2017-09-07T11:26:47.819Z,63.23
2017-09-07T11:27:58.199Z,63.23
2017-09-07T11:29:08.565Z,63.06
2017-09-07T11:30:18.928Z,63.81
2017-09-07T11:31:29.259Z,63.42
2017-09-07T11:32:39.629Z,63.81
2017-09-07T11:33:49.667Z,63.65
2017-09-07T11:35:00.017Z,63.45
2017-09-07T11:36:10.048Z,63.26
2017-09-07T11:37:20.391Z,62.9
2017-09-07T11:38:30.438Z,62.9
2017-09-07T11:39:40.466Z,63.42
2017-09-07T11:40:50.814Z,63.39
2017-09-07T11:42:01.459Z,63.09
2017-09-07T11:43:11.862Z,63.39
2017-09-07T11:44:22.231Z,63.32
2017-09-07T11:45:32.287Z,63.32
2017-09-07T11:46:42.636Z,63.48
2017-09-07T11:47:54.445Z,63.97
2017-09-07T11:49:04.489Z,64.26
2017-09-07T11:50:14.840Z,64.04
2017-09-07T11:51:25.188Z,64.23
2017-09-07T11:52:35.553Z,64.32
2017-09-07T11:53:45.949Z,63.94
2017-09-07T11:54:56.292Z,64.13
2017-09-07T11:56:06.653Z,64.23
2017-09-07T11:57:17.010Z,64.32
2017-09-07T11:58:27.358Z,64.32
2017-09-07T11:59:37.439Z,64.32
2017-09-07T12:00:47.820Z,63.9
2017-09-07T12:01:58.162Z,64
2017-09-07T12:03:08.516Z,63.97
2017-09-07T12:04:18.556Z,64.39
2017-09-07T12:05:28.646Z,64.29
2017-09-07T12:06:38.692Z,64.26
2017-09-07T12:07:49.014Z,64.17
2017-09-07T12:08:59.390Z,62.93
2017-09-07T12:10:09.404Z,63.16
2017-09-07T12:11:19.750Z,62.93
2017-09-07T12:12:30.094Z,63.81
2017-09-07T12:13:40.130Z,63.52
2017-09-07T12:14:50.174Z,63.62
2017-09-07T12:16:00.514Z,63.42
2017-09-07T12:17:10.935Z,63.87
2017-09-07T12:18:20.982Z,63.87
2017-09-07T12:19:31.010Z,64.26
2017-09-07T12:20:41.029Z,64.07
2017-09-07T12:21:51.077Z,64.26
2017-09-07T12:23:02.594Z,64.17
2017-09-07T12:24:12.957Z,64.17
2017-09-07T12:25:23.332Z,64.14
2017-09-07T12:26:33.380Z,64.17
2017-09-07T12:27:44.501Z,63.87
2017-09-07T12:28:54.905Z,63.97
2017-09-07T12:30:04.944Z,64.17
2017-09-07T12:31:14.976Z,63.94
2017-09-07T12:32:24.993Z,63.97
2017-09-07T12:33:35.032Z,64.17
2017-09-07T12:34:45.404Z,64.07
2017-09-07T12:35:55.763Z,64.07
2017-09-07T12:37:06.128Z,64.07
2017-09-07T12:38:16.497Z,64.07
2017-09-07T12:39:26.538Z,64.26
2017-09-07T12:40:36.882Z,64.72
2017-09-07T12:41:47.242Z,65.08
2017-09-07T12:42:57.649Z,64.95
2017-09-07T12:44:07.688Z,65.59
2017-09-07T12:45:18.052Z,65.79
2017-09-07T12:46:28.459Z,66.08
2017-09-07T12:47:40.405Z,65.66
2017-09-07T12:48:50.770Z,65.37
2017-09-07T12:50:01.140Z,65.4
2017-09-07T12:51:13.243Z,64.72
2017-09-07T12:52:38.408Z,64.72
2017-09-07T12:53:48.778Z,64.65
2017-09-07T12:54:59.149Z,64.75
2017-09-07T12:56:09.186Z,64.26
2017-09-07T12:57:19.528Z,63.98
2017-09-07T12:58:29.957Z,64.11
2017-09-07T12:59:40.019Z,64.65
2017-09-07T13:00:49.741Z,64.26
2017-09-07T13:02:00.109Z,64.07
2017-09-07T13:03:10.486Z,64.36
2017-09-07T13:04:21.092Z,64.95
2017-09-07T13:05:31.466Z,65.2
2017-09-07T13:06:41.831Z,65.01
2017-09-07T13:07:52.182Z,65.27
2017-09-07T13:09:02.543Z,65.08
2017-09-07T13:10:12.577Z,65.17
2017-09-07T13:11:22.942Z,64.62
2017-09-07T13:12:32.969Z,64.43
2017-09-07T13:13:43.341Z,63.95
2017-09-07T13:14:53.375Z,64.07
2017-09-07T13:16:04.063Z,63.98
2017-09-07T13:17:14.426Z,64.07
2017-09-07T13:18:26.841Z,64.3
2017-09-07T13:19:37.221Z,63.98
2017-09-07T13:20:47.624Z,64.17
2017-09-07T13:21:58.044Z,64.3
2017-09-07T13:23:08.143Z,64.65
2017-09-07T13:24:18.518Z,64.26
2017-09-07T13:25:28.910Z,64.46
2017-09-07T13:26:38.956Z,64.49
2017-09-07T13:27:49.056Z,64.01
2017-09-07T13:28:58.786Z,64.3
2017-09-07T13:30:08.851Z,64.11
2017-09-07T13:31:19.459Z,64.01
2017-09-07T13:32:29.834Z,64.4
2017-09-07T13:33:40.228Z,64.59
2017-09-07T13:34:50.601Z,64.2
2017-09-07T13:36:00.969Z,64.46
2017-09-07T13:37:11.340Z,64.65
2017-09-07T13:38:21.442Z,65.05
2017-09-07T13:39:31.221Z,64.95
2017-09-07T13:40:41.583Z,64.46
2017-09-07T13:41:51.307Z,64.65
2017-09-07T13:43:01.656Z,64.56
2017-09-07T13:44:11.997Z,63.98
2017-09-07T13:45:23.762Z,64.17
2017-09-07T13:46:33.801Z,64.17
2017-09-07T13:47:43.824Z,64.46
2017-09-07T13:48:54.193Z,64.46
2017-09-07T13:50:04.556Z,65.01
2017-09-07T13:51:15.069Z,64.62
2017-09-07T13:52:25.442Z,65.4
2017-09-07T13:53:35.793Z,65.47
2017-09-07T13:54:45.848Z,65.47
2017-09-07T13:55:55.906Z,65.37
2017-09-07T13:57:06.327Z,65.17
2017-09-07T13:58:16.375Z,65.24
2017-09-07T13:59:26.432Z,66.11
2017-09-07T14:00:36.505Z,66.11
2017-09-07T14:01:46.856Z,65.53
2017-09-07T14:02:57.219Z,65.53
2017-09-07T14:04:07.596Z,64.95
2017-09-07T14:05:17.969Z,64.56
2017-09-07T14:06:28.016Z,65.17
2017-09-07T14:07:40.342Z,65.17
2017-09-07T14:08:50.930Z,65.63
2017-09-07T14:10:00.966Z,66.3
2017-09-07T14:11:11.033Z,66.47
2017-09-07T14:12:21.075Z,66.05
2017-09-07T14:13:31.425Z,66.24
2017-09-07T14:14:41.838Z,66.43
2017-09-07T14:15:51.556Z,66.88
2017-09-07T14:17:01.918Z,66.78
2017-09-07T14:18:12.352Z,66.4
2017-09-07T14:19:22.720Z,66.4
2017-09-07T14:20:33.135Z,66.66
2017-09-07T14:21:43.496Z,66.56
2017-09-07T14:22:54.060Z,66.37
2017-09-07T14:24:04.408Z,66.75
2017-09-07T14:25:14.763Z,66.37
2017-09-07T14:26:25.127Z,66.47
2017-09-07T14:27:35.489Z,66.27
2017-09-07T14:28:45.843Z,66.27
2017-09-07T14:29:55.887Z,65.59
2017-09-07T14:31:06.257Z,65.63
2017-09-07T14:32:16.625Z,65.05
2017-09-07T14:33:26.979Z,64.98
2017-09-07T14:34:37.346Z,65.37
2017-09-07T14:35:47.383Z,65.37
2017-09-07T14:36:57.441Z,65.27
2017-09-07T14:38:07.540Z,65.17
2017-09-07T14:39:17.567Z,65.27
2017-09-07T14:40:27.933Z,65.27
2017-09-07T14:41:38.344Z,64.59
2017-09-07T14:42:50.610Z,64.92
2017-09-07T14:44:00.338Z,64.72
2017-09-07T14:45:10.705Z,64.47
2017-09-07T14:46:20.750Z,63.78
2017-09-07T14:47:30.789Z,64.01
2017-09-07T14:48:41.137Z,63.26
2017-09-07T14:49:51.505Z,63.17
2017-09-07T14:51:01.897Z,63.1
2017-09-07T14:52:12.255Z,62.81
2017-09-07T14:53:22.613Z,63.13
2017-09-07T14:54:32.999Z,63.32
2017-09-07T14:55:43.424Z,63.52
2017-09-07T14:56:53.496Z,64.11
2017-09-07T14:58:03.904Z,63.91
2017-09-07T14:59:14.345Z,63.91
2017-09-07T15:00:24.383Z,64.01
2017-09-07T15:01:34.803Z,63.71
2017-09-07T15:02:44.851Z,64.11
2017-09-07T15:03:55.236Z,64.11
2017-09-07T15:05:05.602Z,64.4
2017-09-07T15:06:15.972Z,64.75
2017-09-07T15:07:26.364Z,64.92
2017-09-07T15:08:36.089Z,64.72
2017-09-07T15:09:46.430Z,65.11
2017-09-07T15:10:56.138Z,64.65
2017-09-07T15:12:06.506Z,64.75
2017-09-07T15:13:16.933Z,64.65
2017-09-07T15:14:26.968Z,64.56
2017-09-07T15:15:37.010Z,64.36
2017-09-07T15:16:47.352Z,64.65
2017-09-07T15:17:57.733Z,64.36
2017-09-07T15:19:07.836Z,64.53
2017-09-07T15:20:17.565Z,64.95
2017-09-07T15:21:27.619Z,65.4
2017-09-07T15:22:37.655Z,65.4
2017-09-07T15:23:48.044Z,65.2
2017-09-07T15:24:58.419Z,65.37
2017-09-07T15:26:08.161Z,65.37
2017-09-07T15:27:18.505Z,65.17
2017-09-07T15:28:28.865Z,65.47
2017-09-07T15:29:38.931Z,65.27
2017-09-07T15:30:49.340Z,65.63
2017-09-07T15:32:01.153Z,65.92
2017-09-07T15:33:11.548Z,65.72
2017-09-07T15:34:21.928Z,66.3
2017-09-07T15:35:32.304Z,66.17
2017-09-07T15:36:42.697Z,66.37
2017-09-07T15:37:53.062Z,66.08
2017-09-07T15:39:03.433Z,66.08
2017-09-07T15:40:13.793Z,66.17
2017-09-07T15:41:24.161Z,66.34
2017-09-07T15:42:34.547Z,66.34
2017-09-07T15:43:44.912Z,66.34
2017-09-07T15:44:55.740Z,66.34
2017-09-07T15:46:06.097Z,66.14
2017-09-07T15:47:16.465Z,66.53
2017-09-07T15:48:26.587Z,66.78
2017-09-07T15:49:36.938Z,66.56
2017-09-07T15:50:47.011Z,66.75
2017-09-07T15:51:57.392Z,66.37
2017-09-07T15:53:07.773Z,66.17